Kendall Tamiami Executive Airport
KTMB : now visible

Airfield :











YOU CAN JOIN US ON...

 
LOGIN :

Register | Disclaimer

   EN    FR    IT 

 









Legend :    VFR   Marginal VFR   IFR   Intensive IFR   Very Intensive IFR
Visi :
Ceiling :
>= 8 km
>= 3000ft
5 to 8 km
1000 to 3000 ft
1500m to 5 km
500 to 1000 ft
800 to 1500m
200 to 500 ft
< 800m
< 200 ft
Symbols :   Thunderstorms  Fog  Heavy snow  Heavy precipitations  Wind > 20 kt






- Airport Elevation : 8 ft


KTMB - Kendall Tamiami Executive

CURRENT METAR :
  • 220153Z 13004KT 10SM CLR 28/25 A3000 RMK AO2 SLP159 T02780250

EXPIRED METARs :
  • 220106Z 15003KT 10SM CLR 28/26 A3000 RMK AO2 T02780256
  • 220053Z 14004KT 10SM CLR 28/26 A3000 RMK AO2 SLP158 T02830256
  • 212353Z 14005KT 10SM CLR 28/25 A2999 RMK AO2 SLP155 T02830250 10328 20283 53009

TAF KTMB
Valid from the 22 at 00:00 until the 23 at 00:00 UTC


212323Z 2200/2224 14009KT P6SM SCT035 SCT050
FM220100 VRB02KT P6SM FEW030
FM221500 14010KT P6SM SCT035 SCT050



MET'MAP, your aeronautical weather chart ! - Copyright ORBIFLY December 2007 - Disclaimer

ORBIFLY MET'MAP TEAM :

Programming & Development : Alexandra Zaïnal
Concept & Development : Baudouin d'Aumeries
Co-Development & Prog : Marc-Olivier Méhu
Technical & hardware support : Manuel Goepfert

Contact : metmap@orbifly.com




SOURCES & CREDITS :

   NOAA       Earth
Advisory